Beatty, Nevada Weather observations

Data are for observation ending at time listed.
 Day   Time    Ave.   Ave.  Ave.  Vector   Max.   Stn.    Total    Solar   Ave.  
  of    of     Air    Rel.  Wind   Wind    Wind   Baro.  Precip.   Rad.    Soil  
Year   Day     Temp.  Hum.  Speed  Dir.    Gust   Pres.                    Temp. 
2016   (PST)    F      %     mph   deg.    mph     mb.     in.     W/m2     F   
------------------------------------------------------------------------------
 336   21:00   42.7    34   10.4   353     16.8   901.5    0.00       0    49.7
 336   21:10   42.4    35   10.0     1     18.0   901.7    0.00       0    49.7
 336   21:20   42.2    35   10.2   359     18.3   901.8    0.00       0    49.7
 336   21:30   42.4    35   10.6   357     17.5   901.9    0.00       0    49.7
 336   21:40   42.2    36    9.2     1     15.3   902.0    0.00       0    49.7
 336   21:50   42.0    36    7.6   358     12.4   902.1    0.00       0    49.7
 336   22:00   41.7    37    7.8   359     13.5   902.2    0.00       0    49.7
 336   22:10   41.8    37    8.8     3     15.6   902.3    0.00       0    49.7
 336   22:20   42.0    36   10.3     6     17.2   902.4    0.00       0    49.7
 336   22:30   42.3    36   10.9     4     17.2   902.5    0.00       0    49.7
 336   22:40   42.2    35   10.6     6     16.6   902.5    0.00       0    49.7
 336   22:50   42.2    34   11.5     2     19.9   902.6    0.00       0    49.7
 336   23:00   42.2    34   12.9     6     21.3   902.6    0.00       0    49.7
 336   23:10   42.0    34   12.8     4     19.7   902.7    0.00       0    49.7
 336   23:20   41.6    34   12.9     7     20.0   902.7    0.00       0    49.7
 336   23:30   41.4    33   10.8     7     17.8   902.7    0.00       0    49.7
 336   23:40   41.1    32   10.1     5     15.1   902.8    0.00       0    49.7
 336   23:50   40.9    32   11.4     4     16.4   902.9    0.00       0    49.7
 337    0:00   40.9    31   12.1     3     18.4   902.9    0.00       0    49.7
 337    0:10   40.4    31   10.6     4     17.0   902.9    0.00       0    49.7
 337    0:20   40.1    31    9.9     4     15.3   902.8    0.00       0    49.7
 337    0:30   39.9    30   11.3     5     20.1   902.8    0.00       0    49.7
 337    0:40   39.7    30   12.6     2     19.4   902.8    0.00       0    49.7
 337    0:50   39.6    30   13.1     7     24.0   902.8    0.00       0    49.6
 337    1:00   39.3    30   10.6     7     18.8   902.8    0.00       0    49.6
 337    1:10   39.0    30    9.3     2     20.1   902.7    0.00       0    49.6
 337    1:20   38.8    30   10.4     9     19.1   902.7    0.00       0    49.6
 337    1:30   38.5    31   12.6     7     19.8   902.8    0.00       0    49.6
 337    1:40   38.3    32   12.4     5     19.4   902.8    0.00       0    49.6
 337    1:50   38.4    32   12.7     7     20.3   902.8    0.00       0    49.5
 337    2:00   38.7    30   11.2     6     22.8   902.8    0.00       0    49.5
 337    2:10   38.4    31   11.8     5     20.3   902.7    0.00       0    49.5
 337    2:20   38.1    31   12.9     4     21.7   902.6    0.00       0    49.5
 337    2:30   38.1    30   14.3     4     22.1   902.6    0.00       0    49.4
 337    2:40   38.0    30   14.3     2     21.3   902.6    0.00       0    49.4
 337    2:50   37.8    30   13.9     4     19.9   902.7    0.00       0    49.4
 337    3:00   37.4    30   11.7     2     20.1   902.8    0.00       0    49.4
 337    3:10   37.0    31   11.6     3     17.5   902.8    0.00       0    49.4
 337    3:20   37.3    30   14.5     6     22.6   902.9    0.00       0    49.4
 337    3:30   37.2    30   14.4     4     21.8   903.0    0.00       0    49.3
 337    3:40   37.0    30   14.3     6     19.9   903.0    0.00       0    49.3
 337    3:50   36.6    31   13.1     6     19.8   903.0    0.00       0    49.3
 337    4:00   36.5    31   13.8     3     22.9   903.1    0.00       0    49.2
 337    4:10   36.2    32   12.9     6     20.0   903.0    0.00       0    49.2
 337    4:20   36.0    32   13.0     5     20.1   903.2    0.00       0    49.2
 337    4:30   35.6    32    9.9     7     15.7   903.3    0.00       0    49.2
 337    4:40   34.7    33    7.7     8     14.3   903.5    0.00       0    49.1
 337    4:50   35.3    32    9.9     5     16.8   903.6    0.00       0    49.0
 337    5:00   34.9    33    8.0     5     15.6   903.7    0.00       0    49.0
 337    5:10   34.0    34    5.7    13     10.6   904.0    0.00       0    49.0
 337    5:20   33.7    34    7.1    20     12.9   904.1    0.00       0    49.0
 337    5:30   33.6    34    6.1    34     14.8   904.1    0.00       0    48.9
 337    5:40   32.9    35    4.9    28     10.7   904.2    0.00       0    48.9
 337    5:50   32.4    35    3.7    34      9.3   904.5    0.00       0    48.8
 337    6:00   32.1    36    4.0    19      8.4   904.7    0.00       0    48.8
 337    6:10   32.7    34    6.0    32     12.0   904.9    0.00       0    48.8
 337    6:20   34.9    30    8.2    11     20.8   905.0    0.00       0    48.7
 337    6:30   35.4    29   10.0    10     21.9   905.1    0.00       0    48.7
 337    6:40   35.8    28   14.0     6     22.1   905.1    0.00       0    48.7
 337    6:50   35.8    28   15.1     6     24.4   905.1    0.00       3    48.6
 337    7:00   35.7    28   15.4     7     21.4   905.3    0.00       6    48.6
 337    7:10   35.6    28   13.9     5     22.9   905.5    0.00       8    48.6
 337    7:20   35.5    28   14.5     4     22.9   905.4    0.00      12    48.5
 337    7:30   35.4    28   12.9     1     20.5   905.5    0.00      12    48.5
 337    7:40   35.7    27   13.4     5     24.0   905.7    0.00      15    48.5
 337    7:50   36.3    26   14.7     6     22.3   905.8    0.00      18    48.5
 337    8:00   36.7    26   14.4     3     22.3   905.8    0.00      19    48.4
 337    8:10   36.8    26   15.6     6     23.2   906.0    0.00      22    48.4
 337    8:20   36.9    25   15.5     7     24.5   906.1    0.00     120    48.3
 337    8:30   37.5    26   15.2     5     24.0   906.2    0.00     240    48.3
 337    8:40   37.7    27   15.5     5     27.3   906.4    0.00     263    48.3
 337    8:50   38.2    27   15.7     4     24.0   906.5    0.00     271    48.2
 337    9:00   38.5    27   16.5     4     27.9   906.7    0.00     305    48.2
 337    9:10   38.7    26   17.3     3     28.9   906.7    0.00     325    48.2
 337    9:20   39.2    26   15.4     5     24.8   906.8    0.00     345    48.2
 337    9:30   39.8    25   14.8     2     22.9   906.8    0.00     362    48.1
 337    9:40   40.0    25   16.0     6     25.3   906.8    0.00     380    48.1
 337    9:50   40.6    24   14.1     4     23.9   906.7    0.00     396    48.0
 337   10:00   41.3    23   13.1     3     22.5   906.6    0.00     411    48.0
 337   10:10   41.7    23   11.9    14     23.1   906.8    0.00     427    48.0
 337   10:20   41.8    24   12.0    16     22.9   906.7    0.00     440    48.0
 337   10:30   41.7    23   13.9     6     24.2   906.7    0.00     449    47.9
 337   10:40   41.8    23   14.7     4     26.6   906.6    0.00     458    47.9
 337   10:50   42.2    23   14.4    10     24.4   906.5    0.00     467    47.9
 337   11:00   42.6    23   15.3     9     27.6   906.5    0.00     473    47.9
 337   11:10   42.8    23   13.6     2     24.5   906.4    0.00     477    47.9
 337   11:20   43.3    22   15.0     3     27.7   906.2    0.00     483    47.8
 337   11:30   43.5    21   14.4     7     25.5   906.1    0.00     484    47.8
 337   11:40   43.8    21   15.3     3     24.5   906.1    0.00     484    47.8
 337   11:50   44.1    20   13.7     6     24.5   905.9    0.00     486    47.8
 337   12:00   44.3    19   14.1     4     24.8   905.7    0.00     482    47.8
 337   12:10   44.9    19   10.7    17     23.2   905.5    0.00     480    47.8
 337   12:20   44.9    19   10.8    15     21.8   905.5    0.00     475    47.8
 337   12:30   44.7    19   14.3     3     24.3   905.4    0.00     469    47.9
 337   12:40   44.8    18   13.2    12     26.3   905.3    0.00     439    47.9
 337   12:50   44.9    18   12.9     8     23.7   905.3    0.00     312    47.9
 337   13:00   45.2    18   10.7    24     20.2   905.2    0.00     226    47.9
 337   13:10   45.6    18    9.5    21     22.3   905.2    0.00     244    47.9
 337   13:20   45.5    18   11.5     9     27.0   905.1    0.00     392    47.9
 337   13:30   45.9    18   11.4     8     25.3   904.9    0.00     391    47.9
 337   13:40   45.8    18   12.6     4     23.2   904.8    0.00     389    47.9
 337   13:50   45.7    17   13.7     4     24.3   904.8    0.00     332    47.9
 337   14:00   45.9    18   11.1    18     25.4   904.7    0.00     353    48.0
 337   14:10   46.1    18   10.8    21     23.8   904.9    0.00     334    48.0
 337   14:20   46.1    18    9.1    27     22.1   905.0    0.00     314    48.0
 337   14:30   46.0    18   11.9    10     21.8   905.1    0.00     295    48.0
 337   14:40   46.1    18    9.7    21     19.4   905.1    0.00     273    48.1
 337   14:50   46.1    18   10.6     4     20.5   905.1    0.00     251    48.1
 337   15:00   46.3    18    8.2    27     17.5   905.0    0.00     226    48.1
 337   15:10   46.2    18    9.0    33     18.1   905.0    0.00     202    48.1
 337   15:20   46.2    18    8.7    20     19.9   905.1    0.00     178    48.1
 337   15:30   46.5    17    8.9    15     23.1   905.1    0.00     146    48.2
 337   15:40   46.4    17    9.8    15     23.7   905.2    0.00      24    48.2
 337   15:50   46.0    18   11.9     4     24.3   905.2    0.00      19    48.2
 337   16:00   46.1    18    7.7     7     17.0   905.2    0.00      23    48.2
 337   16:10   45.9    17    7.3    10     14.0   905.3    0.00      46    48.2
 337   16:20   45.3    17    8.3    19     14.8   905.4    0.00      14    48.2
 337   16:30   44.6    18    7.8    17     15.6   905.4    0.00       6    48.2
 337   16:40   44.1    18    7.5    14     15.0   905.5    0.00       4    48.2
 337   16:50   43.9    17    9.0     5     19.7   905.7    0.00       0    48.2
 337   17:00   43.7    17   10.7     0     20.1   905.7    0.00       0    48.3
 337   17:10   43.4    18    9.8     4     15.9   905.8    0.00       0    48.3
 337   17:20   42.9    19    9.8     4     14.9   906.0    0.00       0    48.3
 337   17:30   42.8    20   10.5     4     16.4   906.1    0.00       0    48.3
 337   17:40   42.5    21   10.3     3     17.0   906.2    0.00       0    48.3
 337   17:50   42.2    21   10.1     7     15.2   906.3    0.00       0    48.3
 337   18:00   42.1    22   11.6     6     17.8   906.4    0.00       0    48.3
 337   18:10   42.0    22   11.4     8     18.3   906.5    0.00       0    48.4
 337   18:20   41.8    22   11.2     6     18.5   906.5    0.00       0    48.4
 337   18:30   41.4    23    9.7     5     16.1   906.7    0.00       0    48.4
 337   18:40   40.8    25   11.6     4     20.5   906.9    0.00       0    48.4
 337   18:50   40.9    26   13.0     6     19.4   907.1    0.00       0    48.4
 337   19:00   40.9    26   12.8     4     21.7   907.2    0.00       0    48.4
 337   19:10   40.8    26   13.0     2     21.0   907.3    0.00       0    48.5
 337   19:20   40.7    27   12.1     3     19.4   907.3    0.00       0    48.5
 337   19:30   40.6    28   13.6     5     22.8   907.5    0.00       0    48.5
 337   19:40   40.7    28   13.9     2     24.0   907.6    0.00       0    48.5
 337   19:50   40.3    28   12.8     4     19.4   907.8    0.00       0    48.5
 337   20:00   40.2    28   12.9     4     23.2   908.0    0.00       0    48.5
 337   20:10   40.1    27   13.9     4     24.2   908.1    0.00       0    48.5
 337   20:20   40.5    27   16.2     5     26.7   908.2    0.00       0    48.5
 337   20:30   40.2    27   16.5     4     23.7   908.1    0.00       0    48.5
 337   20:40   40.1    27   16.9     3     28.7   908.1    0.00       0    48.5
 337   20:50   39.7    27   15.2     5     25.6   908.1    0.00       0    48.5

Return to Beatty, Nevada graphs page.


Western Regional Climate Center,wrcc@dri.edu